Conway, SC

12:11 AM EDT on August 30, 2016 (GMT -0400)
Conway-Horry County | | Change Station

Elev 33 ft 33.83 °N, 79.12 °W | Updated 16 minutes ago

Mostly Cloudy
Mostly Cloudy
72 °F
Feels Like 72 °F
N
0
Wind Variable Wind from North

Today
High -- | Low -- °F
--% Chance of Precip.
Yesterday
High -- | Low -- °F
Precip. -- in
Pressure 30.07 in
Visibility 7.0 miles
Clouds Mostly Cloudy 5500 ft
Dew Point 72 °F
Humidity 100%
Rainfall 0.00 in
Snow Depth Not available.
6:49 AM 7:44 PM
Waning Crescent, 5% visible
METAR KHYW 300355Z AUTO 00000KT 7SM BKN055 22/22 A3007 RMK AO2
Pressure 30.07 in
Visibility 7.0 miles
Clouds Mostly Cloudy 5500 ft
Dew Point 72 °F
Humidity 100%
Rainfall 0.00 in
Snow Depth Not available.
6:49 AM 7:44 PM
Waning Crescent, 5% visible
METAR KHYW 300355Z AUTO 00000KT 7SM BKN055 22/22 A3007 RMK AO2

10-Day Weather Forecast

Almanac

Astronomy

Aug. 30, 2016 Rise Set
Actual Time
Civil Twilight
Nautical Twilight
Astronomical Twilight
Moon
Length of Visible Light
Length of Day
Tomorrow will be .
, % of the Moon is Illuminated

Today's Extremes

State Highs State Lows

Community

WunderPhotos

Upload Photos

1,935,785 photos uploaded!

WunderBlog® & News

Nearby

Air Quality

  Air Quality AQ Index Pollutant
Not available.

Snow Depth

Station Depth Elevation

Earthquake Activity

City Distance Mag. Time & Date
Minimum magnitude displayed is 2.5.

Coastal Water Temperatures

Place Temperature

Stations

Nearby Weather Stations

Station Location Temp. Windchill Dew Point Humidity Wind Precip. Elev Updated Type
                   

Watches & Warnings

There are currently no watches in effect.